Time;durP1;ratioP1;P1;durP2;ratioP2;P2;SDS_P1;SDS_P2;PMS_P1;PMS_P2;Temp;Humidity;BMP_temperature;BMP_pressure;BME280_temperature;BME280_humidity;BME280_pressure;Samples;Min_cycle;Max_cycle;Signal;HPM_P1;HPM_P2
2022/12/23 00:00:17;;;;;;;11.50;7.70;;;;;;;4.64;100.00;96191.25;5025975;28;20199;-69
2022/12/23 00:02:46;;;;;;;14.60;7.77;;;;;;;4.62;100.00;96190.63;5028427;28;20207;-70
2022/12/23 00:05:15;;;;;;;8.37;7.57;;;;;;;4.62;100.00;96188.00;5025134;28;20228;-67
2022/12/23 00:07:43;;;;;;;13.30;7.83;;;;;;;4.61;100.00;96185.56;5013868;28;20211;-70
2022/12/23 00:10:12;;;;;;;10.30;7.37;;;;;;;4.62;100.00;96176.69;4998888;28;20243;-69
2022/12/23 00:15:25;;;;;;;13.27;7.93;;;;;;;4.56;100.00;96167.69;5028371;28;20866;-69
2022/12/23 00:17:53;;;;;;;11.83;7.23;;;;;;;4.61;100.00;96167.19;5024385;28;20208;-70
2022/12/23 00:20:21;;;;;;;11.13;7.23;;;;;;;4.60;100.00;96161.13;5026503;28;20713;-69
2022/12/23 00:23:04;;;;;;;8.27;5.93;;;;;;;4.62;100.00;96156.50;5014163;28;20204;-68
2022/12/23 00:25:43;;;;;;;12.87;6.93;;;;;;;4.62;100.00;96151.25;5026011;28;20935;-67
2022/12/23 00:28:13;;;;;;;12.23;6.97;;;;;;;4.66;100.00;96145.66;4990888;28;20235;-68
2022/12/23 00:30:45;;;;;;;11.70;6.43;;;;;;;4.63;100.00;96137.16;5025630;28;20709;-68
2022/12/23 00:33:13;;;;;;;12.50;6.70;;;;;;;4.60;100.00;96134.88;5024819;28;20721;-67
2022/12/23 00:35:42;;;;;;;12.47;6.70;;;;;;;4.59;100.00;96132.44;5031504;28;20580;-70
2022/12/23 00:38:10;;;;;;;9.23;5.77;;;;;;;4.62;100.00;96135.53;5008948;28;20235;-67
2022/12/23 00:43:23;;;;;;;10.30;5.97;;;;;;;4.65;100.00;96134.38;4990873;28;20208;-66
2022/12/23 00:45:50;;;;;;;11.60;6.90;;;;;;;4.70;100.00;96125.97;5026608;28;20200;-67
2022/12/23 00:51:06;;;;;;;10.77;6.13;;;;;;;4.69;100.00;96122.53;5024745;28;20208;-67
2022/12/23 00:53:33;;;;;;;12.47;5.93;;;;;;;4.71;100.00;96128.44;5021416;28;20230;-69
2022/12/23 00:56:01;;;;;;;9.67;5.80;;;;;;;4.72;100.00;96130.06;5028788;28;20206;-67
2022/12/23 00:58:30;;;;;;;9.03;5.67;;;;;;;4.74;100.00;96127.28;4990917;28;21031;-68
2022/12/23 01:06:30;;;;;;;6.63;5.97;;;;;;;4.78;100.00;96125.94;5011895;28;20305;-68
2022/12/23 01:08:57;;;;;;;7.40;5.67;;;;;;;4.78;100.00;96118.88;5029282;28;20471;-68
2022/12/23 01:11:25;;;;;;;12.47;5.97;;;;;;;4.78;100.00;96115.44;5027172;28;20218;-69
2022/12/23 01:13:52;;;;;;;10.13;5.67;;;;;;;4.78;100.00;96115.44;4992626;28;20224;-71
2022/12/23 01:16:20;;;;;;;9.97;6.33;;;;;;;4.81;100.00;96116.88;5022590;28;20516;-71
2022/12/23 01:18:48;;;;;;;10.47;5.60;;;;;;;4.82;100.00;96121.97;5028784;28;20322;-68
2022/12/23 01:21:15;;;;;;;9.97;5.50;;;;;;;4.85;100.00;96112.91;5024453;28;20222;-68
2022/12/23 01:23:44;;;;;;;7.23;5.50;;;;;;;4.82;100.00;96124.59;4995897;28;21115;-68
2022/12/23 01:26:12;;;;;;;9.77;5.93;;;;;;;4.82;100.00;96114.09;5029469;28;20216;-70
2022/12/23 01:28:40;;;;;;;12.90;6.10;;;;;;;4.79;100.00;96117.06;4999723;28;20399;-66
2022/12/23 01:31:09;;;;;;;10.23;6.30;;;;;;;4.79;100.00;96114.44;4984970;28;20216;-68
2022/12/23 01:33:37;;;;;;;12.93;6.47;;;;;;;4.80;100.00;96113.47;5024411;28;20338;-69
2022/12/23 01:36:07;;;;;;;11.97;6.33;;;;;;;4.80;100.00;96108.22;5026147;28;20234;-67
2022/12/23 01:38:35;;;;;;;10.20;6.17;;;;;;;4.81;100.00;96101.13;5006424;28;20337;-69
2022/12/23 01:41:04;;;;;;;13.37;5.63;;;;;;;4.81;100.00;96101.13;5013450;28;20210;-69
2022/12/23 01:43:44;;;;;;;14.47;5.80;;;;;;;4.81;100.00;96107.22;5012013;28;20743;-69
2022/12/23 01:46:12;;;;;;;11.57;5.33;;;;;;;4.84;100.00;96109.50;4999789;28;20200;-65
2022/12/23 01:48:41;;;;;;;10.50;6.10;;;;;;;4.86;100.00;96109.31;5015462;28;20215;-69
2022/12/23 01:51:13;;;;;;;7.30;6.03;;;;;;;4.84;100.00;96111.28;5023839;28;20204;-68
2022/12/23 01:53:43;;;;;;;16.53;6.50;;;;;;;4.84;100.00;96104.25;5027557;28;20738;-70
2022/12/23 01:56:15;;;;;;;9.03;5.30;;;;;;;4.86;100.00;96109.31;5028964;28;20211;-68
2022/12/23 01:58:45;;;;;;;11.00;6.13;;;;;;;4.87;100.00;96100.44;5013355;28;20331;-69
2022/12/23 02:04:03;;;;;;;11.73;6.07;;;;;;;4.86;100.00;96104.88;5024164;28;20219;-69
2022/12/23 02:09:21;;;;;;;9.27;5.70;;;;;;;4.89;100.00;96115.03;5004356;28;20222;-66
2022/12/23 02:12:10;;;;;;;14.27;6.03;;;;;;;4.92;100.00;96112.06;5024719;28;20214;-68
2022/12/23 02:17:41;;;;;;;12.40;6.50;;;;;;;4.93;100.00;96110.25;4988004;28;20230;-69
2022/12/23 02:20:46;;;;;;;13.50;6.97;;;;;;;4.94;100.00;96106.66;5021153;28;20207;-69
2022/12/23 02:23:46;;;;;;;9.73;6.47;;;;;;;4.96;100.00;96111.69;5017482;28;20301;-69
2022/12/23 02:26:35;;;;;;;9.87;6.40;;;;;;;4.93;100.00;96111.06;5022159;28;20721;-69
2022/12/23 02:29:18;;;;;;;9.83;6.70;;;;;;;4.98;100.00;96107.09;5014986;28;20209;-68
2022/12/23 02:31:55;;;;;;;7.17;6.30;;;;;;;4.96;100.00;96109.91;5022449;28;21649;-71
2022/12/23 02:34:27;;;;;;;11.20;6.60;;;;;;;4.94;100.00;96114.53;4982475;28;20447;-70
2022/12/23 02:37:03;;;;;;;8.30;5.87;;;;;;;4.96;100.00;96116.94;5020572;28;20204;-70
2022/12/23 02:39:37;;;;;;;11.90;6.77;;;;;;;4.93;100.00;96112.88;5008661;28;20211;-68
2022/12/23 02:42:08;;;;;;;7.63;6.17;;;;;;;4.94;100.00;96117.16;5020215;28;20213;-69
2022/12/23 02:44:40;;;;;;;13.93;6.53;;;;;;;4.95;100.00;96110.06;5025565;28;20242;-70
2022/12/23 02:47:11;;;;;;;16.47;6.77;;;;;;;4.96;100.00;96109.06;4998001;28;20227;-68
2022/12/23 02:49:40;;;;;;;10.07;6.27;;;;;;;4.93;100.00;96110.25;4990266;28;20216;-70
2022/12/23 02:52:14;;;;;;;11.17;6.73;;;;;;;4.95;100.00;96102.19;5022490;28;20200;-68
2022/12/23 02:54:45;;;;;;;13.93;7.20;;;;;;;4.89;100.00;96096.66;5023411;28;20498;-67
2022/12/23 02:57:14;;;;;;;7.83;7.03;;;;;;;4.95;100.00;96102.19;5025699;28;20720;-68
2022/12/23 02:59:45;;;;;;;13.60;7.83;;;;;;;4.92;100.00;96106.81;5024605;28;20207;-68
2022/12/23 03:02:14;;;;;;;11.80;8.37;;;;;;;4.93;100.00;96099.75;5008867;28;20495;-68
2022/12/23 03:04:42;;;;;;;8.77;7.97;;;;;;;4.95;100.00;96096.94;4988615;28;20357;-68
2022/12/23 03:07:15;;;;;;;17.47;9.83;;;;;;;4.90;100.00;96092.22;5022293;28;20218;-68
2022/12/23 03:09:53;;;;;;;14.80;8.73;;;;;;;4.93;100.00;96087.44;5025353;28;20325;-71
2022/12/23 03:12:27;;;;;;;10.37;9.17;;;;;;;4.93;100.00;96095.31;5025781;28;20408;-69
2022/12/23 03:15:09;;;;;;;9.93;8.87;;;;;;;4.94;100.00;96090.91;5027766;28;20231;-66
2022/12/23 03:17:49;;;;;;;12.07;9.50;;;;;;;4.95;100.00;96091.69;5004775;28;20214;-68
2022/12/23 03:20:23;;;;;;;11.40;8.90;;;;;;;4.93;100.00;96092.69;4985576;28;20219;-69
2022/12/23 03:22:57;;;;;;;9.50;8.10;;;;;;;4.96;100.00;96083.66;5021078;28;20204;-70
2022/12/23 03:25:29;;;;;;;11.93;8.40;;;;;;;4.97;100.00;96080.03;5023027;28;20219;-70
2022/12/23 03:28:00;;;;;;;9.97;7.93;;;;;;;5.00;100.00;96081.47;5026264;28;20199;-68
2022/12/23 03:30:29;;;;;;;10.17;8.00;;;;;;;5.01;100.00;96077.88;5022656;28;20199;-70
2022/12/23 03:33:00;;;;;;;10.70;7.97;;;;;;;5.01;100.00;96085.72;5011196;28;20208;-68
2022/12/23 03:35:31;;;;;;;15.67;9.30;;;;;;;4.99;100.00;96074.59;4985426;28;25518;-69
2022/12/23 03:38:00;;;;;;;43.57;11.77;;;;;;;4.98;100.00;96084.28;5020008;28;20666;-69
2022/12/23 03:40:31;;;;;;;19.60;9.17;;;;;;;4.97;100.00;96085.28;4966921;28;20212;-70
2022/12/23 03:43:02;;;;;;;12.03;7.33;;;;;;;5.00;100.00;96086.72;5019006;28;20338;-68
2022/12/23 03:45:32;;;;;;;13.53;7.83;;;;;;;4.98;100.00;96084.28;5024529;28;20319;-69
2022/12/23 03:48:18;;;;;;;9.27;8.23;;;;;;;5.01;100.00;96080.50;4999286;28;20307;-68
2022/12/23 03:50:48;;;;;;;16.37;9.13;;;;;;;5.03;100.00;96089.00;5029915;28;20206;-69
2022/12/23 03:53:20;;;;;;;9.03;8.13;;;;;;;5.03;100.00;96084.59;5026166;28;20449;-67
2022/12/23 03:55:52;;;;;;;12.13;7.43;;;;;;;5.05;100.00;96089.63;4988867;28;20250;-68
2022/12/23 03:58:27;;;;;;;8.43;7.63;;;;;;;5.06;100.00;96086.84;5027594;28;20427;-69
2022/12/23 04:01:00;;;;;;;8.93;7.00;;;;;;;5.06;100.00;96091.28;5015470;28;20667;-69
2022/12/23 04:03:31;;;;;;;7.17;6.40;;;;;;;5.04;100.00;96096.72;5013447;28;20412;-67
2022/12/23 04:06:01;;;;;;;8.30;7.50;;;;;;;5.05;100.00;96098.34;5028864;28;20497;-66
2022/12/23 04:08:30;;;;;;;7.83;7.20;;;;;;;5.07;100.00;96096.38;5013960;28;20728;-67
2022/12/23 04:10:58;;;;;;;7.70;7.00;;;;;;;5.07;100.00;96099.00;4985074;28;20249;-65
2022/12/23 04:13:26;;;;;;;8.85;7.80;;;;;;;5.06;100.00;96107.03;5022537;28;20466;-66
2022/12/23 04:15:54;;;;;;;7.90;7.10;;;;;;;5.07;100.00;96101.63;5021844;28;20234;-68
2022/12/23 04:18:21;;;;;;;7.33;6.63;;;;;;;5.00;100.00;96091.97;5011357;28;20412;-68
2022/12/23 04:20:50;;;;;;;6.70;6.10;;;;;;;5.05;100.00;96100.97;5029470;28;20203;-68
2022/12/23 04:23:18;;;;;;;6.07;5.47;;;;;;;5.01;100.00;96099.69;5024392;28;20222;-69
2022/12/23 04:25:45;;;;;;;6.83;6.13;;;;;;;5.05;100.00;96097.50;4990674;28;20753;-67
2022/12/23 04:28:13;;;;;;;6.13;5.63;;;;;;;5.06;100.00;96099.97;5026652;28;20208;-67
2022/12/23 04:30:40;;;;;;;6.07;5.47;;;;;;;5.04;100.00;96098.50;5030027;28;20203;-69
2022/12/23 04:33:10;;;;;;;5.93;5.53;;;;;;;5.07;100.00;96106.03;5016596;28;20211;-67
2022/12/23 04:35:37;;;;;;;6.10;5.60;;;;;;;5.07;100.00;96106.03;5028278;28;20285;-68
2022/12/23 04:38:06;;;;;;;6.10;5.60;;;;;;;5.10;100.00;96107.50;5026376;28;20195;-67
2022/12/23 04:40:34;;;;;;;5.87;5.37;;;;;;;5.07;100.00;96099.00;4989859;28;21374;-68
2022/12/23 04:43:01;;;;;;;6.10;5.60;;;;;;;5.09;100.00;96096.16;5029514;28;20199;-66
2022/12/23 04:45:29;;;;;;;5.63;5.13;;;;;;;5.11;100.00;96102.06;5024184;28;20242;-69
2022/12/23 04:47:57;;;;;;;6.17;5.67;;;;;;;5.14;100.00;96096.47;5028417;28;20524;-67
2022/12/23 04:50:24;;;;;;;6.73;6.17;;;;;;;5.10;100.00;96100.44;5010765;28;20639;-67
2022/12/23 04:52:52;;;;;;;6.80;6.20;;;;;;;5.12;100.00;96106.34;5026095;28;21673;-67
2022/12/23 04:55:21;;;;;;;6.70;6.07;;;;;;;5.13;100.00;96107.16;5028065;28;20329;-67
2022/12/23 04:57:48;;;;;;;6.37;5.77;;;;;;;5.11;100.00;96104.69;4988441;28;20208;-68
2022/12/23 05:00:17;;;;;;;5.73;5.17;;;;;;;5.13;100.00;96102.72;5020180;28;20775;-68
2022/12/23 05:02:44;;;;;;;6.37;5.80;;;;;;;5.11;100.00;96102.06;5023388;28;20199;-66
2022/12/23 05:05:12;;;;;;;7.40;6.00;;;;;;;5.09;100.00;96088.28;5009460;28;20227;-65
2022/12/23 05:07:40;;;;;;;6.70;6.10;;;;;;;5.12;100.00;96102.88;5022050;28;20217;-66
2022/12/23 05:10:09;;;;;;;6.27;5.67;;;;;;;5.12;100.00;96103.72;5029471;28;20230;-66
2022/12/23 05:12:37;;;;;;;6.13;5.73;;;;;;;5.08;100.00;96102.41;4987359;28;20222;-67
2022/12/23 05:15:07;;;;;;;7.17;6.37;;;;;;;5.12;100.00;96114.22;5025141;28;20250;-65
2022/12/23 05:17:35;;;;;;;7.30;6.63;;;;;;;5.11;100.00;96107.31;5027716;28;20199;-65
2022/12/23 05:20:02;;;;;;;7.60;6.90;;;;;;;5.10;100.00;96104.88;5008089;28;20206;-66
2022/12/23 05:22:30;;;;;;;7.47;6.77;;;;;;;5.10;100.00;96110.13;5017922;28;20912;-66
2022/12/23 05:24:57;;;;;;;8.57;7.60;;;;;;;5.09;100.00;96114.56;5029293;28;20226;-67
2022/12/23 05:27:25;;;;;;;7.90;7.30;;;;;;;5.09;100.00;96109.28;4972736;28;21740;-68
2022/12/23 05:29:54;;;;;;;10.10;7.93;;;;;;;5.08;100.00;96126.03;5026353;28;20208;-68
2022/12/23 05:32:22;;;;;;;8.83;8.00;;;;;;;5.06;100.00;96120.97;5021719;28;20238;-67
2022/12/23 05:34:49;;;;;;;8.80;8.00;;;;;;;5.05;100.00;96118.53;5030082;28;20231;-68
2022/12/23 05:37:17;;;;;;;8.87;8.07;;;;;;;5.03;100.00;96123.13;5009972;28;20212;-67
2022/12/23 05:39:44;;;;;;;9.40;8.50;;;;;;;5.06;100.00;96128.88;5030583;28;20210;-68
2022/12/23 05:42:12;;;;;;;10.07;9.17;;;;;;;5.06;100.00;96131.50;5013545;28;20211;-66
2022/12/23 05:44:40;;;;;;;11.87;9.17;;;;;;;5.07;100.00;96129.66;4986746;28;20243;-67
2022/12/23 05:47:08;;;;;;;11.53;9.77;;;;;;;5.04;100.00;96138.72;4974144;28;20622;-68
2022/12/23 05:49:36;;;;;;;10.03;9.03;;;;;;;5.03;100.00;96133.63;5011258;28;20532;-66
2022/12/23 05:52:04;;;;;;;12.33;9.60;;;;;;;5.02;100.00;96135.47;5023506;28;20200;-66
2022/12/23 05:54:31;;;;;;;12.43;11.13;;;;;;;5.00;100.00;96133.97;5015102;28;20599;-68
2022/12/23 05:56:59;;;;;;;12.83;10.20;;;;;;;5.00;100.00;96140.06;5025458;28;20294;-68
2022/12/23 05:59:27;;;;;;;11.50;10.23;;;;;;;5.03;100.00;96142.34;5030775;28;20211;-69
2022/12/23 06:01:58;;;;;;;10.50;9.23;;;;;;;5.05;100.00;96135.09;4982159;28;20625;-67
2022/12/23 06:04:27;;;;;;;10.80;9.53;;;;;;;5.03;100.00;96131.84;5030096;28;20374;-68
2022/12/23 06:06:55;;;;;;;10.93;9.83;;;;;;;5.04;100.00;96143.16;5021452;28;20257;-68
2022/12/23 06:09:22;;;;;;;11.57;10.43;;;;;;;5.01;100.00;96143.50;5012336;28;20262;-66
2022/12/23 06:11:50;;;;;;;16.93;10.87;;;;;;;5.01;100.00;96157.44;5024707;28;20207;-67
2022/12/23 06:14:17;;;;;;;11.77;9.97;;;;;;;5.01;100.00;96159.25;5029812;28;20246;-67
2022/12/23 06:16:54;;;;;;;14.23;10.63;;;;;;;5.00;100.00;96147.09;4982347;28;20238;-67
2022/12/23 06:19:22;;;;;;;14.87;11.70;;;;;;;5.04;100.00;96153.66;5027288;28;20211;-68
2022/12/23 06:21:51;;;;;;;14.80;11.00;;;;;;;5.04;100.00;96151.84;5020827;28;20197;-66
2022/12/23 06:24:18;;;;;;;13.73;12.03;;;;;;;5.05;100.00;96152.66;5022243;28;20266;-67
2022/12/23 06:26:46;;;;;;;12.60;10.47;;;;;;;5.04;100.00;96156.28;5010687;28;20203;-66
2022/12/23 06:29:20;;;;;;;13.43;11.27;;;;;;;5.09;100.00;96161.00;5027440;28;20574;-68
2022/12/23 06:31:47;;;;;;;14.73;11.57;;;;;;;5.07;100.00;96166.41;5003283;28;20677;-66
2022/12/23 06:34:15;;;;;;;14.50;11.13;;;;;;;5.07;100.00;96169.03;4985696;28;20434;-69
2022/12/23 06:36:43;;;;;;;13.20;10.97;;;;;;;5.09;100.00;96176.75;5003067;28;20227;-66
2022/12/23 06:39:12;;;;;;;13.53;10.90;;;;;;;5.10;100.00;96183.66;5028620;28;20210;-68
2022/12/23 06:41:39;;;;;;;13.50;11.87;;;;;;;5.12;100.00;96197.41;5013028;28;20538;-68
2022/12/23 06:44:08;;;;;;;16.87;12.37;;;;;;;5.14;100.00;96205.94;5026721;28;20226;-68
2022/12/23 06:46:36;;;;;;;18.33;12.10;;;;;;;5.13;100.00;96202.50;5026986;28;20211;-68
2022/12/23 06:49:03;;;;;;;16.97;12.30;;;;;;;5.13;100.00;96205.13;4982499;28;20227;-67
2022/12/23 06:51:39;;;;;;;16.13;12.87;;;;;;;5.14;100.00;96204.16;5023830;28;20309;-68
2022/12/23 06:54:08;;;;;;;15.87;12.07;;;;;;;5.18;100.00;96208.06;5028866;28;20227;-68
2022/12/23 06:56:37;;;;;;;14.10;11.43;;;;;;;5.16;100.00;96204.78;5011945;28;21770;-69
2022/12/23 06:59:05;;;;;;;17.43;12.17;;;;;;;5.16;100.00;96211.84;5024541;28;20200;-67
2022/12/23 07:01:32;;;;;;;14.67;11.33;;;;;;;5.18;100.00;96215.94;5025282;28;20203;-70
2022/12/23 07:04:00;;;;;;;15.30;11.83;;;;;;;5.21;100.00;96209.50;4985235;28;20246;-66
2022/12/23 07:06:28;;;;;;;15.70;12.80;;;;;;;5.22;100.00;96205.88;5016723;28;20377;-68
2022/12/23 07:08:55;;;;;;;18.53;12.47;;;;;;;5.21;100.00;96209.50;5029219;28;20614;-68
2022/12/23 07:11:23;;;;;;;14.80;11.20;;;;;;;5.20;100.00;96205.25;5023102;28;20615;-70
2022/12/23 07:13:52;;;;;;;15.33;11.53;;;;;;;5.22;100.00;96211.97;5013410;28;20235;-68
2022/12/23 07:16:19;;;;;;;13.23;11.20;;;;;;;5.20;100.00;96211.31;5021087;28;20421;-70
2022/12/23 07:18:47;;;;;;;12.50;10.83;;;;;;;5.28;100.00;96234.06;5033775;28;20211;-69
2022/12/23 07:21:15;;;;;;;14.63;10.10;;;;;;;5.31;100.00;96235.53;4987664;28;20674;-67
2022/12/23 07:23:55;;;;;;;13.03;9.77;;;;;;;5.33;100.00;96231.75;5032287;28;20234;-68
2022/12/23 07:26:22;;;;;;;12.63;10.30;;;;;;;5.36;100.00;96243.72;5028857;28;20420;-68
2022/12/23 07:28:51;;;;;;;12.83;10.00;;;;;;;5.39;100.00;96246.00;5015879;28;20391;-67
2022/12/23 07:31:19;;;;;;;11.63;9.57;;;;;;;5.46;100.00;96254.81;5028296;28;20222;-68
2022/12/23 07:33:46;;;;;;;10.90;9.60;;;;;;;5.54;100.00;96247.88;5029820;28;20969;-70
2022/12/23 07:36:14;;;;;;;10.37;9.37;;;;;;;5.54;100.00;96247.88;4987348;28;20227;-68
2022/12/23 07:38:41;;;;;;;11.93;9.33;;;;;;;5.59;100.00;96250.81;5030649;28;20199;-68
2022/12/23 07:41:09;;;;;;;9.40;8.30;;;;;;;5.65;100.00;96260.59;5029249;28;20203;-68
2022/12/23 07:43:36;;;;;;;10.03;8.73;;;;;;;5.65;100.00;96263.25;5017701;28;20602;-68
2022/12/23 07:46:09;;;;;;;10.43;8.30;;;;;;;5.74;100.00;96266.63;5019368;28;20198;-68
2022/12/23 07:48:37;;;;;;;9.30;8.30;;;;;;;5.71;100.00;96264.34;5026713;28;20215;-67
2022/12/23 07:51:05;;;;;;;9.63;8.03;;;;;;;5.71;100.00;96262.53;4991001;28;20218;-67
2022/12/23 07:53:33;;;;;;;8.60;7.70;;;;;;;5.76;100.00;96273.34;5024667;28;20203;-68
2022/12/23 07:56:00;;;;;;;10.10;8.83;;;;;;;5.80;100.00;96273.81;4962149;28;20579;-72
2022/12/23 07:58:28;;;;;;;11.30;9.63;;;;;;;5.80;100.00;96279.88;5023929;28;20242;-72
2022/12/23 08:01:00;;;;;;;10.43;9.27;;;;;;;5.85;100.00;96275.88;5023894;28;20503;-72
2022/12/23 08:03:29;;;;;;;10.30;9.30;;;;;;;5.83;100.00;96268.19;5012518;28;20917;-71
2022/12/23 08:06:01;;;;;;;11.00;9.50;;;;;;;5.87;100.00;96273.91;5006121;28;20239;-70
2022/12/23 08:08:29;;;;;;;9.50;8.60;;;;;;;5.94;100.00;96280.13;5023534;28;20204;-71
2022/12/23 08:10:59;;;;;;;10.50;9.40;;;;;;;5.99;100.00;96282.19;4966432;28;20463;-70
2022/12/23 08:13:27;;;;;;;9.47;8.53;;;;;;;6.05;100.00;96292.84;5028291;28;20667;-72
2022/12/23 08:15:56;;;;;;;10.40;8.97;;;;;;;6.01;100.00;96282.84;5026063;28;20445;-71
2022/12/23 08:18:24;;;;;;;12.23;9.37;;;;;;;5.95;100.00;96287.00;5018392;28;20207;-72
2022/12/23 08:20:56;;;;;;;12.97;11.67;;;;;;;5.90;100.00;96287.53;5027687;28;20208;-70
2022/12/23 08:23:25;;;;;;;9.97;9.00;;;;;;;5.97;100.00;96292.06;5026739;28;20208;-71
2022/12/23 08:26:05;;;;;;;10.27;9.27;;;;;;;6.10;100.00;96288.88;5011754;28;20236;-70
2022/12/23 08:28:33;;;;;;;9.53;8.60;;;;;;;5.84;100.00;96296.13;4992326;28;20211;-71
2022/12/23 08:31:05;;;;;;;9.90;8.90;;;;;;;5.79;100.00;96295.84;5025317;28;20853;-70
2022/12/23 08:33:35;;;;;;;11.87;10.33;;;;;;;5.69;100.00;96295.25;5030237;28;20326;-71
2022/12/23 08:36:05;;;;;;;11.70;10.03;;;;;;;5.70;100.00;96283.75;5013896;28;20306;-70
2022/12/23 08:38:33;;;;;;;10.83;9.70;;;;;;;5.83;100.00;96291.84;4985962;28;20215;-72
2022/12/23 08:41:00;;;;;;;12.83;9.30;;;;;;;5.87;100.00;96295.75;5010928;28;20603;-71
2022/12/23 08:43:28;;;;;;;8.80;7.97;;;;;;;5.91;100.00;96293.63;4980496;28;20729;-71
2022/12/23 08:46:02;;;;;;;7.80;6.97;;;;;;;6.14;100.00;96298.03;5024314;28;20430;-71
2022/12/23 08:48:30;;;;;;;9.30;8.27;;;;;;;6.19;100.00;96298.31;5031481;28;20687;-71
2022/12/23 08:51:04;;;;;;;8.17;7.37;;;;;;;6.34;100.00;96301.81;5011556;28;20211;-72
2022/12/23 08:53:32;;;;;;;7.13;6.53;;;;;;;6.58;100.00;96304.38;5025423;28;20199;-69
2022/12/23 08:56:02;;;;;;;6.97;6.37;;;;;;;6.71;100.00;96312.47;5024788;28;20759;-72
2022/12/23 08:58:30;;;;;;;6.33;5.47;;;;;;;6.79;100.00;96324.72;4993892;28;20796;-71
2022/12/23 09:01:02;;;;;;;4.63;4.30;;;;;;;6.99;100.00;96327.63;5012253;28;20429;-69
2022/12/23 09:03:29;;;;;;;3.53;3.33;;;;;;;6.89;100.00;96341.06;5027835;28;20707;-72
2022/12/23 09:05:57;;;;;;;4.20;3.90;;;;;;;6.86;100.00;96340.63;5009879;28;20215;-72
2022/12/23 09:08:26;;;;;;;5.27;4.80;;;;;;;7.02;100.00;96348.34;5023915;28;20195;-71
2022/12/23 09:10:54;;;;;;;5.37;4.97;;;;;;;7.22;100.00;96353.88;5028464;28;20207;-71
2022/12/23 09:13:21;;;;;;;5.10;4.60;;;;;;;7.29;100.00;96359.25;5031169;28;20211;-71
2022/12/23 09:16:01;;;;;;;4.30;4.10;;;;;;;7.32;100.00;96360.69;5004770;28;20222;-70
2022/12/23 09:18:29;;;;;;;4.80;4.50;;;;;;;7.37;100.00;96355.66;5029934;28;20227;-70
2022/12/23 09:20:58;;;;;;;4.93;4.53;;;;;;;7.40;100.00;96352.69;5015192;28;20974;-70
2022/12/23 09:23:27;;;;;;;4.47;4.17;;;;;;;7.45;100.00;96345.03;5024372;28;20202;-69
2022/12/23 09:25:55;;;;;;;4.70;4.40;;;;;;;7.37;100.00;96347.75;5030015;28;20836;-71
2022/12/23 09:28:24;;;;;;;5.23;4.73;;;;;;;7.32;100.00;96348.34;5032051;28;20196;-71
2022/12/23 09:30:52;;;;;;;5.70;5.30;;;;;;;7.38;100.00;96339.69;5003335;28;20204;-71
2022/12/23 09:33:20;;;;;;;5.10;4.67;;;;;;;7.54;100.00;96340.47;5030164;28;20218;-70
2022/12/23 09:35:47;;;;;;;4.40;4.20;;;;;;;7.61;100.00;96346.66;5013242;28;20363;-73
2022/12/23 09:38:15;;;;;;;4.70;4.40;;;;;;;7.74;100.00;96338.03;5026493;28;20215;-73
2022/12/23 09:40:44;;;;;;;4.83;4.53;;;;;;;7.70;100.00;96341.25;5027635;28;20199;-69
2022/12/23 09:43:22;;;;;;;6.77;5.67;;;;;;;7.55;100.00;96338.66;5029756;28;20208;-70
2022/12/23 09:45:58;;;;;;;5.80;5.40;;;;;;;7.71;100.00;96334.97;4994032;28;20257;-73
2022/12/23 09:48:29;;;;;;;6.37;5.97;;;;;;;7.80;100.00;96334.69;5027088;28;20543;-71
2022/12/23 09:50:57;;;;;;;5.77;5.37;;;;;;;7.78;100.00;96339.31;5023883;28;20610;-73
2022/12/23 09:53:27;;;;;;;5.70;5.30;;;;;;;7.77;100.00;96336.88;5014708;28;20337;-71
2022/12/23 09:55:57;;;;;;;5.63;5.20;;;;;;;7.84;100.00;96347.50;5015044;28;20208;-71
2022/12/23 09:58:29;;;;;;;12.03;7.13;;;;;;;7.63;100.00;96333.25;5029886;28;20333;-72
2022/12/23 10:01:06;;;;;;;5.47;4.97;;;;;;;7.48;100.00;96328.03;4998129;28;20208;-73
2022/12/23 10:03:40;;;;;;;4.70;4.40;;;;;;;7.60;100.00;96325.72;4995028;28;20349;-73
2022/12/23 10:06:11;;;;;;;6.80;4.50;;;;;;;7.50;100.00;96333.94;5015766;28;20217;-71
2022/12/23 10:08:41;;;;;;;4.53;4.13;;;;;;;7.45;100.00;96325.75;5028957;28;20191;-73
2022/12/23 10:11:14;;;;;;;5.57;4.70;;;;;;;7.41;100.00;96335.88;5018810;28;20625;-72
2022/12/23 10:13:45;;;;;;;5.90;5.33;;;;;;;7.29;100.00;96332.06;5026227;28;20417;-72
2022/12/23 10:16:15;;;;;;;5.63;5.13;;;;;;;7.20;100.00;96334.81;5024956;28;20223;-71
2022/12/23 10:18:50;;;;;;;5.77;5.37;;;;;;;7.14;100.00;96332.91;4998352;28;20220;-73
2022/12/23 10:21:20;;;;;;;5.73;5.23;;;;;;;7.10;100.00;96332.44;5005242;28;20230;-73
2022/12/23 10:23:50;;;;;;;5.87;5.37;;;;;;;7.12;100.00;96324.38;5023741;28;20719;-73
2022/12/23 10:26:23;;;;;;;5.67;5.27;;;;;;;7.04;100.00;96327.09;5029232;28;20393;-73
2022/12/23 10:28:55;;;;;;;7.30;6.70;;;;;;;6.96;100.00;96330.63;5010815;28;21718;-72
2022/12/23 10:31:28;;;;;;;6.67;6.17;;;;;;;6.93;100.00;96331.00;5029583;28;20291;-73
2022/12/23 10:34:13;;;;;;;7.67;7.10;;;;;;;6.84;100.00;96324.22;4998260;28;20614;-74
2022/12/23 10:36:46;;;;;;;8.40;7.80;;;;;;;6.89;100.00;96324.47;5023931;28;20212;-71
2022/12/23 10:39:21;;;;;;;7.93;7.23;;;;;;;6.92;100.00;96334.63;5028848;28;20245;-71
2022/12/23 10:41:55;;;;;;;8.07;7.37;;;;;;;6.91;100.00;96328.53;5011296;28;20215;-72
2022/12/23 10:44:38;;;;;;;8.90;8.07;;;;;;;6.93;100.00;96318.63;5029543;28;20226;-73
2022/12/23 10:47:12;;;;;;;8.97;8.27;;;;;;;7.00;100.00;96331.06;5029867;28;20208;-71
2022/12/23 10:49:51;;;;;;;8.53;7.93;;;;;;;7.02;100.00;96313.31;4976974;28;20215;-71
2022/12/23 10:52:20;;;;;;;9.90;8.90;;;;;;;7.01;100.00;96316.91;5029805;28;20211;-74
2022/12/23 10:54:48;;;;;;;10.03;8.97;;;;;;;6.99;100.00;96308.38;5013972;28;20614;-72
2022/12/23 10:57:19;;;;;;;10.53;9.57;;;;;;;6.95;100.00;96323.75;5057598;28;20194;-73
2022/12/23 10:59:46;;;;;;;10.97;9.87;;;;;;;7.01;100.00;96307.19;5031007;28;20315;-71
2022/12/23 11:02:39;;;;;;;9.60;8.80;;;;;;;6.99;100.00;96295.22;5034299;28;20694;-71
2022/12/23 11:05:12;;;;;;;8.50;7.73;;;;;;;6.99;100.00;96288.13;4997048;28;20411;-73
2022/12/23 11:07:40;;;;;;;8.17;7.47;;;;;;;7.06;100.00;96281.13;5029707;28;20314;-72
2022/12/23 11:10:17;;;;;;;7.50;6.90;;;;;;;7.27;100.00;96298.00;5019940;28;20876;-73
2022/12/23 11:12:49;;;;;;;7.30;6.70;;;;;;;7.26;100.00;96288.47;5013653;28;20207;-70
2022/12/23 11:15:29;;;;;;;7.50;6.90;;;;;;;7.36;100.00;96293.41;5010861;28;20348;-72
2022/12/23 11:18:01;;;;;;;7.53;6.93;;;;;;;7.43;100.00;96291.69;5029301;28;20224;-70
2022/12/23 11:20:29;;;;;;;7.80;7.03;;;;;;;7.36;100.00;96298.69;5001204;28;20357;-72
2022/12/23 11:23:00;;;;;;;7.47;6.87;;;;;;;7.38;100.00;96302.78;5007429;28;20219;-71
2022/12/23 11:25:31;;;;;;;10.07;7.53;;;;;;;7.60;100.00;96302.84;5016432;28;20453;-73
2022/12/23 11:28:04;;;;;;;9.00;8.10;;;;;;;7.50;100.00;96289.94;5027855;28;20531;-70
2022/12/23 11:30:47;;;;;;;9.97;7.20;;;;;;;7.61;100.00;96295.72;5027968;28;20218;-70
2022/12/23 11:33:25;;;;;;;6.73;6.23;;;;;;;7.62;100.00;96292.09;5032215;28;20372;-73
2022/12/23 11:36:01;;;;;;;7.30;6.70;;;;;;;7.69;100.00;96282.41;5001516;28;20231;-72
2022/12/23 11:38:29;;;;;;;7.53;6.83;;;;;;;7.71;100.00;96285.69;5029633;28;20219;-72
2022/12/23 11:40:56;;;;;;;6.33;5.83;;;;;;;7.75;100.00;96281.66;5010647;28;20215;-71
2022/12/23 11:43:26;;;;;;;7.03;6.43;;;;;;;7.86;100.00;96274.28;5028281;28;20505;-72
2022/12/23 11:46:30;;;;;;;7.20;6.60;;;;;;;7.82;100.00;96281.72;5010978;28;20564;-71
2022/12/23 11:49:19;;;;;;;6.97;6.47;;;;;;;7.77;100.00;96271.78;5025007;28;20203;-71
2022/12/23 11:51:48;;;;;;;7.60;7.00;;;;;;;7.78;100.00;96265.50;4988026;28;20210;-73
2022/12/23 11:54:21;;;;;;;8.10;7.50;;;;;;;7.76;100.00;96272.75;5006699;28;20235;-73
2022/12/23 11:56:51;;;;;;;8.50;7.80;;;;;;;7.80;100.00;96274.03;5026214;28;20205;-73
2022/12/23 11:59:27;;;;;;;9.80;8.77;;;;;;;7.79;100.00;96264.47;5008739;28;20536;-71
2022/12/23 12:01:58;;;;;;;8.53;7.83;;;;;;;7.78;100.00;96264.66;5009390;28;21901;-71
2022/12/23 12:04:26;;;;;;;8.73;7.87;;;;;;;7.77;100.00;96266.50;5026177;28;20247;-71
2022/12/23 12:06:54;;;;;;;9.07;8.17;;;;;;;7.74;100.00;96266.84;4985403;28;21119;-70